map of TRD home
TRD - Airport
Location
City:  Trondheim, Norway
Near (Alt.):Stjørdal
Name:Vaernes
ICAO:ENVA
IATA:TRD

Details
Type:Airport (Aerodrome, Airfield)
Use:Public/Civil, Military, International (customs port of entry)
Latitude:63°27'27"N (63.457556)
Longitude:10°55'27"E (10.924250)
Datum:WGS 1984
Elevation:56 ft (17 m)
Variation:3.92°E (WMM2015v2 magnetic declination)
0.23° annual change
Runways:2
Longest:9347 × 148 ft (2849 × 45 m), paved

Time
Time Zone:UTC+1 (DST+2)
Local Time:

Weather
METAR:ENVA 041420Z 11002KT CAVOK M06/M11 Q1010 NOSIG RMK WIND 670FT 07008KT
TAF:ENVA 041100Z 0412/0512 10007KT 9999 FEW040= TAF ENBR 041100Z 0412/0512 12005KT 9999 -RA FEW010 BKN020
TEMPO 0412/0424 3000 RADZ BR BKN012 PROB40
TEMPO 0500/0505 BKN005

Related Locations
Nearby:
Farthest:NZTB: 11426 mi / 18388 km
Terra Nova Bay [Mario Zucchelli Station], AQ

Find:

   beyond  
but within

Other Information
Maps:
NOTAMs:
Links:
Sources:

  
  • flag of Norway
  • flag of Trondheim
  

Airport Diagram

Airport diagram for TRD

Larger airport diagram (OBSOLETE) from NGA

Sectional Chart

Flight Planning
at skyvector.com

Satellite Image

Google Maps Satellite view

 

Copyright © 2004-2019 Karl L. Swartz. All rights reserved.
The Great Circle Mapper name and logo are trademarks of the Great Circle Mapper.
All other trademarks mentioned herein belong to their respective owners.
Please see credits for attibutions and further copyright information.

  Follow gcmap on Facebook Follow gcmap on Twitter GCmap on LinkedIn

hCard Microformat

Geo Microformat